TimeCDT,TemperatureF,Dew PointF,Humidity,Sea Level PressureIn,VisibilityMPH,Wind Direction,Wind SpeedMPH,Gust SpeedMPH,PrecipitationIn,Events,Conditions,WindDirDegrees,DateUTC
12:55 AM,80.6,71.6,74,29.95,10.0,SSE,3.5,-,N/A,,Clear,160,2013-06-26 05:55:00
1:55 AM,78.8,71.6,78,29.96,10.0,Calm,Calm,-,N/A,,Clear,0,2013-06-26 06:55:00
2:55 AM,78.8,71.6,78,29.95,10.0,SSE,3.5,-,N/A,,Clear,150,2013-06-26 07:55:00
3:15 AM,75.2,71.6,89,29.94,10.0,SSE,3.5,-,N/A,,Clear,150,2013-06-26 08:15:00
3:35 AM,77.0,71.6,83,29.94,10.0,SSE,3.5,-,N/A,,Clear,160,2013-06-26 08:35:00
3:55 AM,78.8,71.6,78,29.94,10.0,SSE,3.5,-,N/A,,Clear,150,2013-06-26 08:55:00
4:15 AM,75.2,71.6,89,29.94,10.0,SE,3.5,-,N/A,,Clear,130,2013-06-26 09:15:00
4:35 AM,73.4,71.6,94,29.95,10.0,Calm,Calm,-,N/A,,Clear,0,2013-06-26 09:35:00
4:55 AM,73.4,71.6,94,29.95,10.0,SE,3.5,-,N/A,,Clear,140,2013-06-26 09:55:00
5:15 AM,75.2,71.6,89,29.96,10.0,Calm,Calm,-,N/A,,Clear,0,2013-06-26 10:15:00
5:35 AM,75.2,71.6,89,29.96,10.0,Calm,Calm,-,N/A,,Partly Cloudy,0,2013-06-26 10:35:00
5:55 AM,75.2,71.6,89,29.97,10.0,Calm,Calm,-,N/A,,Scattered Clouds,0,2013-06-26 10:55:00
6:55 AM,78.8,73.4,83,29.98,10.0,SSE,4.6,-,N/A,,Scattered Clouds,150,2013-06-26 11:55:00
7:55 AM,82.4,75.2,79,29.99,10.0,Variable,6.9,-,N/A,,Partly Cloudy,0,2013-06-26 12:55:00
8:55 AM,86.0,75.2,70,29.98,10.0,SSW,10.4,-,N/A,,Scattered Clouds,210,2013-06-26 13:55:00
9:55 AM,86.0,73.4,66,29.96,10.0,South,8.1,-,N/A,,Scattered Clouds,190,2013-06-26 14:55:00
10:55 AM,89.6,73.4,59,29.97,10.0,SSW,12.7,-,N/A,,Scattered Clouds,210,2013-06-26 15:55:00
11:55 AM,89.6,73.4,59,29.97,10.0,SSW,11.5,-,N/A,,Scattered Clouds,200,2013-06-26 16:55:00
12:55 PM,89.6,73.4,59,29.95,10.0,South,8.1,-,N/A,,Mostly Cloudy,190,2013-06-26 17:55:00
1:55 PM,89.6,73.4,59,29.92,10.0,South,10.4,-,N/A,,Mostly Cloudy,190,2013-06-26 18:55:00
2:55 PM,91.4,73.4,55,29.91,10.0,SSW,10.4,-,N/A,,Mostly Cloudy,210,2013-06-26 19:55:00
3:55 PM,93.2,71.6,49,29.88,10.0,South,10.4,-,N/A,,Mostly Cloudy,180,2013-06-26 20:55:00
4:55 PM,93.2,71.6,49,29.87,10.0,Variable,6.9,-,N/A,,Mostly Cloudy,0,2013-06-26 21:55:00
5:55 PM,93.2,71.6,49,29.85,10.0,SSW,6.9,-,N/A,,Mostly Cloudy,200,2013-06-26 22:55:00
6:55 PM,91.4,71.6,52,29.86,10.0,SSW,9.2,-,N/A,,Mostly Cloudy,200,2013-06-26 23:55:00
7:55 PM,89.6,71.6,55,29.86,10.0,SSW,6.9,-,N/A,,Clear,210,2013-06-27 00:55:00
8:55 PM,87.8,71.6,58,29.87,10.0,SSW,5.8,-,N/A,,Partly Cloudy,210,2013-06-27 01:55:00
9:55 PM,86.0,71.6,62,29.87,10.0,SSW,8.1,-,N/A,,Partly Cloudy,210,2013-06-27 02:55:00
10:55 PM,84.2,73.4,70,29.86,10.0,SSW,11.5,-,N/A,,Clear,210,2013-06-27 03:55:00
11:55 PM,84.2,73.4,70,29.89,10.0,SSW,6.9,-,N/A,,Clear,210,2013-06-27 04:55:00